Time;durP1;ratioP1;P1;durP2;ratioP2;P2;SDS_P1;SDS_P2;PMS_P1;PMS_P2;Temp;Humidity;BMP_temperature;BMP_pressure;BME280_temperature;BME280_humidity;BME280_pressure;Samples;Min_cycle;Max_cycle;Signal;HPM_P1;HPM_P2
2022/11/05 00:17:19;;;;;;;;;16.00;15.00;;;;;;;;4996606;28;45933;-86
2022/11/05 00:19:44;;;;;;;;;20.33;19.00;;;;;;;;4997366;28;45283;-84
2022/11/05 00:27:37;;;;;;;;;19.67;14.67;;;;;;;;4997660;28;45231;-83
2022/11/05 00:30:02;;;;;;;;;16.67;10.67;;;;;;;;4997867;28;45388;-80
2022/11/05 00:32:28;;;;;;;;;16.00;13.67;;;;;;;;4997933;28;45203;-81
2022/11/05 00:34:53;;;;;;;;;16.67;14.33;;;;;;;;4997331;28;45819;-84
2022/11/05 00:37:18;;;;;;;;;16.67;15.00;;;;;;;;5011381;28;45427;-81
2022/11/05 00:39:43;;;;;;;;;15.00;13.67;;;;;;;;5017881;28;45284;-79
2022/11/05 00:45:01;;;;;;;;;11.00;10.33;;;;;;;;5013004;28;45152;-80
2022/11/05 00:50:11;;;;;;;;;16.33;12.00;;;;;;;;4997553;28;45276;-81
2022/11/05 00:52:55;;;;;;;;;13.33;12.67;;;;;;;;4997057;28;45325;-85
2022/11/05 00:55:21;;;;;;;;;14.33;11.33;;;;;;;;4997576;28;45402;-81
2022/11/05 00:57:46;;;;;;;;;13.25;8.00;;;;;;;;4997152;28;46153;-81
2022/11/05 01:00:11;;;;;;;;;13.67;12.00;;;;;;;;4997328;28;45430;-80
2022/11/05 01:02:36;;;;;;;;;12.00;11.33;;;;;;;;4997629;28;45243;-83
2022/11/05 01:05:02;;;;;;;;;12.00;12.00;;;;;;;;4997747;28;45353;-80
2022/11/05 01:07:27;;;;;;;;;16.67;13.33;;;;;;;;4996184;28;45599;-80
2022/11/05 01:09:52;;;;;;;;;13.67;11.33;;;;;;;;4997363;28;45468;-80
2022/11/05 01:12:18;;;;;;;;;11.00;9.67;;;;;;;;4997996;28;45214;-80
2022/11/05 01:14:43;;;;;;;;;15.00;14.00;;;;;;;;4998329;28;45365;-82
2022/11/05 01:17:08;;;;;;;;;28.33;24.33;;;;;;;;4997433;28;46566;-82
2022/11/05 01:19:33;;;;;;;;;22.33;19.33;;;;;;;;4997686;28;45791;-80
2022/11/05 01:21:58;;;;;;;;;16.33;15.00;;;;;;;;4997314;28;45278;-81
2022/11/05 01:24:24;;;;;;;;;11.67;11.67;;;;;;;;4997368;28;45648;-80
2022/11/05 01:26:49;;;;;;;;;12.50;10.00;;;;;;;;4997011;28;46546;-81
2022/11/05 01:29:14;;;;;;;;;12.00;10.25;;;;;;;;4998145;28;45432;-82
2022/11/05 01:31:39;;;;;;;;;12.25;12.25;;;;;;;;5001205;28;45278;-82
2022/11/05 01:34:04;;;;;;;;;12.67;12.00;;;;;;;;5001494;28;45373;-81
2022/11/05 01:36:30;;;;;;;;;15.00;11.00;;;;;;;;5000627;28;46488;-79
2022/11/05 01:38:55;;;;;;;;;7.50;6.75;;;;;;;;5000790;28;45528;-81
2022/11/05 01:41:20;;;;;;;;;12.00;12.00;;;;;;;;5001870;28;45429;-80
2022/11/05 01:43:51;;;;;;;;;11.00;8.25;;;;;;;;5000650;28;45298;-82
2022/11/05 01:46:18;;;;;;;;;11.00;10.00;;;;;;;;5000303;28;45684;-82
2022/11/05 01:48:45;;;;;;;;;11.00;11.00;;;;;;;;5000617;28;45230;-82
2022/11/05 01:51:12;;;;;;;;;12.00;10.33;;;;;;;;5001157;28;45161;-82
2022/11/05 01:53:41;;;;;;;;;14.75;12.75;;;;;;;;5001195;28;45397;-83
2022/11/05 01:56:09;;;;;;;;;11.75;11.00;;;;;;;;5000501;28;46406;-84
2022/11/05 01:58:40;;;;;;;;;13.75;11.75;;;;;;;;5000012;28;45336;-83
2022/11/05 02:01:05;;;;;;;;;12.00;12.00;;;;;;;;5000883;28;45435;-82
2022/11/05 02:03:30;;;;;;;;;13.00;11.00;;;;;;;;5000915;28;45448;-83
2022/11/05 02:05:57;;;;;;;;;12.75;11.00;;;;;;;;5000225;28;46197;-85
2022/11/05 02:08:34;;;;;;;;;14.50;11.50;;;;;;;;5000102;28;45397;-84
2022/11/05 02:10:59;;;;;;;;;11.25;11.25;;;;;;;;5000333;28;45245;-84
2022/11/05 02:13:25;;;;;;;;;11.75;11.50;;;;;;;;5000306;28;45200;-87
2022/11/05 02:15:52;;;;;;;;;12.50;8.50;;;;;;;;5009427;28;45802;-84
2022/11/05 02:18:27;;;;;;;;;10.75;9.00;;;;;;;;5023106;28;45339;-84
2022/11/05 02:21:12;;;;;;;;;13.50;13.50;;;;;;;;5029450;28;45408;-84
2022/11/05 02:23:43;;;;;;;;;12.00;12.00;;;;;;;;5015392;28;45444;-81
2022/11/05 02:26:18;;;;;;;;;11.00;11.00;;;;;;;;5028803;28;46904;-80
2022/11/05 02:28:55;;;;;;;;;13.75;10.00;;;;;;;;5015544;28;45499;-81
2022/11/05 02:31:27;;;;;;;;;20.00;18.67;;;;;;;;5012426;28;45547;-80
2022/11/05 02:34:00;;;;;;;;;14.75;10.00;;;;;;;;5030254;28;45344;-83
2022/11/05 02:36:31;;;;;;;;;11.50;9.00;;;;;;;;5017521;28;45477;-83
2022/11/05 02:38:59;;;;;;;;;13.00;12.00;;;;;;;;5019356;28;45305;-81
2022/11/05 02:41:47;;;;;;;;;11.25;11.25;;;;;;;;5004484;28;45277;-80
2022/11/05 02:44:12;;;;;;;;;12.50;9.75;;;;;;;;5005982;28;45279;-80
2022/11/05 02:46:43;;;;;;;;;12.33;9.67;;;;;;;;5018352;28;45453;-79
2022/11/05 02:49:14;;;;;;;;;13.50;11.00;;;;;;;;5019177;28;45325;-81
2022/11/05 02:51:46;;;;;;;;;13.00;9.33;;;;;;;;5019172;28;45335;-82
2022/11/05 02:54:12;;;;;;;;;10.00;10.00;;;;;;;;5019343;28;45332;-80
2022/11/05 02:56:42;;;;;;;;;18.00;11.33;;;;;;;;5018442;28;45391;-79
2022/11/05 02:59:07;;;;;;;;;10.00;10.00;;;;;;;;5018855;28;45294;-80
2022/11/05 03:01:35;;;;;;;;;9.00;9.00;;;;;;;;5018885;28;45360;-80
2022/11/05 03:04:02;;;;;;;;;10.00;9.50;;;;;;;;5010636;28;45393;-79
2022/11/05 03:06:35;;;;;;;;;9.25;6.75;;;;;;;;4998991;28;45495;-81
2022/11/05 03:09:19;;;;;;;;;9.75;8.50;;;;;;;;4998975;28;45333;-80
2022/11/05 03:12:02;;;;;;;;;9.00;6.25;;;;;;;;4999383;28;45440;-81
2022/11/05 03:14:46;;;;;;;;;9.33;7.00;;;;;;;;4999671;28;45290;-83
2022/11/05 03:17:17;;;;;;;;;13.00;11.75;;;;;;;;4999532;28;45576;-83
2022/11/05 03:19:52;;;;;;;;;15.00;7.33;;;;;;;;4999014;28;45342;-83
2022/11/05 03:22:22;;;;;;;;;13.00;12.00;;;;;;;;4998611;28;45278;-82
2022/11/05 03:24:50;;;;;;;;;8.00;8.00;;;;;;;;4999233;28;45368;-81
2022/11/05 03:27:18;;;;;;;;;9.67;9.00;;;;;;;;4998353;28;45321;-82
2022/11/05 03:29:47;;;;;;;;;12.50;6.00;;;;;;;;4998908;28;45307;-82
2022/11/05 03:32:14;;;;;;;;;7.00;7.00;;;;;;;;4999320;28;45411;-83
2022/11/05 03:34:45;;;;;;;;;8.00;5.75;;;;;;;;4998693;28;45309;-80
2022/11/05 03:37:11;;;;;;;;;7.00;6.25;;;;;;;;4998037;28;46032;-83
2022/11/05 03:39:39;;;;;;;;;6.67;6.00;;;;;;;;4998485;28;45183;-81
2022/11/05 03:42:07;;;;;;;;;11.67;10.00;;;;;;;;4998201;28;45404;-80
2022/11/05 03:44:34;;;;;;;;;5.75;5.50;;;;;;;;4998566;28;45313;-82
2022/11/05 03:47:03;;;;;;;;;10.00;6.00;;;;;;;;4998182;28;46787;-77
2022/11/05 03:49:33;;;;;;;;;11.67;8.67;;;;;;;;4998183;28;45293;-82
2022/11/05 03:52:16;;;;;;;;;14.00;11.00;;;;;;;;5005263;28;45202;-78
2022/11/05 03:54:42;;;;;;;;;10.33;7.33;;;;;;;;5018184;28;45372;-78
2022/11/05 03:57:12;;;;;;;;;8.00;5.67;;;;;;;;5017600;28;46232;-79
2022/11/05 03:59:39;;;;;;;;;10.00;9.00;;;;;;;;5017684;28;45200;-78
2022/11/05 04:02:04;;;;;;;;;10.25;8.50;;;;;;;;5018028;28;45305;-79
2022/11/05 04:04:29;;;;;;;;;12.50;7.25;;;;;;;;5018167;28;45341;-78
2022/11/05 04:15:06;;;;;;;;;12.00;10.67;;;;;;;;5017816;28;45234;-79
2022/11/05 04:17:31;;;;;;;;;11.25;10.00;;;;;;;;5017342;28;45453;-80
2022/11/05 04:25:24;;;;;;;;;10.00;8.75;;;;;;;;5009383;28;45219;-78
2022/11/05 04:27:49;;;;;;;;;10.00;9.00;;;;;;;;4997357;28;45478;-79
2022/11/05 04:30:19;;;;;;;;;12.25;9.50;;;;;;;;4997764;28;45305;-77
2022/11/05 04:33:14;;;;;;;;;12.00;11.33;;;;;;;;4997594;28;45442;-80
2022/11/05 04:35:43;;;;;;;;;11.25;10.00;;;;;;;;4995658;28;45429;-79
2022/11/05 04:38:14;;;;;;;;;15.33;10.67;;;;;;;;4995365;28;46683;-78
2022/11/05 04:40:40;;;;;;;;;9.00;9.00;;;;;;;;5002154;28;45501;-78
2022/11/05 04:43:06;;;;;;;;;9.67;6.33;;;;;;;;5015149;28;45334;-78
2022/11/05 04:45:35;;;;;;;;;13.00;11.67;;;;;;;;5015450;28;45542;-78
2022/11/05 04:48:01;;;;;;;;;14.33;9.33;;;;;;;;5015168;28;46052;-79
2022/11/05 04:50:27;;;;;;;;;9.67;9.00;;;;;;;;5010416;28;45501;-82
2022/11/05 04:52:52;;;;;;;;;10.33;9.67;;;;;;;;4998918;28;45219;-79
2022/11/05 04:55:17;;;;;;;;;11.33;10.00;;;;;;;;4998208;28;45331;-81
2022/11/05 04:57:43;;;;;;;;;15.33;11.33;;;;;;;;5014824;28;45524;-80
2022/11/05 05:00:09;;;;;;;;;13.33;10.00;;;;;;;;5028181;28;45634;-79
2022/11/05 05:02:35;;;;;;;;;16.33;11.00;;;;;;;;5017178;28;45315;-82
2022/11/05 05:05:00;;;;;;;;;11.33;10.00;;;;;;;;4998245;28;45608;-80
2022/11/05 05:07:27;;;;;;;;;17.67;14.33;;;;;;;;5009503;28;46472;-79
2022/11/05 05:09:53;;;;;;;;;10.75;10.50;;;;;;;;4998576;28;45464;-81
2022/11/05 05:12:19;;;;;;;;;11.00;9.33;;;;;;;;5000045;28;45365;-82
2022/11/05 05:14:45;;;;;;;;;11.67;10.33;;;;;;;;5000138;28;45255;-83
2022/11/05 05:17:11;;;;;;;;;14.33;11.33;;;;;;;;4999889;28;45343;-84
2022/11/05 05:21:37;;;;;;;;;14.67;11.67;;;;;;;;5000823;28;45152;-82
2022/11/05 05:22:21;;;;;;;;;17.50;10.50;;;;;;;;5001748;28;45209;-75
2022/11/05 05:24:46;;;;;;;;;9.75;8.25;;;;;;;;5008068;28;45436;-76
2022/11/05 05:27:11;;;;;;;;;11.33;11.33;;;;;;;;5020017;28;45538;-77
2022/11/05 05:29:37;;;;;;;;;12.00;12.00;;;;;;;;5019775;28;45329;-80
2022/11/05 05:32:02;;;;;;;;;12.00;10.67;;;;;;;;5017231;28;46844;-79
2022/11/05 05:34:27;;;;;;;;;15.50;12.25;;;;;;;;5000004;28;45899;-77
2022/11/05 05:36:52;;;;;;;;;12.67;11.67;;;;;;;;5007508;28;46752;-79
2022/11/05 05:39:18;;;;;;;;;14.67;12.33;;;;;;;;5001740;28;45427;-78
2022/11/05 05:41:43;;;;;;;;;18.33;12.33;;;;;;;;5011112;28;45250;-78
2022/11/05 05:44:08;;;;;;;;;14.33;10.00;;;;;;;;5006368;28;45520;-78
2022/11/05 05:46:33;;;;;;;;;16.33;12.00;;;;;;;;5015832;28;46466;-78
2022/11/05 05:48:58;;;;;;;;;16.67;12.00;;;;;;;;5016157;28;45556;-78
2022/11/05 05:51:24;;;;;;;;;12.33;10.00;;;;;;;;5001226;28;45412;-79
2022/11/05 05:53:49;;;;;;;;;16.67;10.33;;;;;;;;5000237;28;45420;-79
2022/11/05 05:56:18;;;;;;;;;13.67;10.00;;;;;;;;5008125;28;45365;-78
2022/11/05 05:58:43;;;;;;;;;13.00;9.25;;;;;;;;5036202;28;45342;-79
2022/11/05 06:01:10;;;;;;;;;15.67;11.00;;;;;;;;5023803;28;45249;-80
2022/11/05 06:03:35;;;;;;;;;13.67;13.00;;;;;;;;5001246;28;45503;-82
2022/11/05 06:06:05;;;;;;;;;15.33;11.00;;;;;;;;5017037;28;46212;-82
2022/11/05 06:08:30;;;;;;;;;12.33;10.33;;;;;;;;5019159;28;45335;-84
2022/11/05 06:10:56;;;;;;;;;12.00;10.67;;;;;;;;5016232;28;45341;-82
2022/11/05 06:13:21;;;;;;;;;13.00;13.00;;;;;;;;5000439;28;45397;-82
2022/11/05 06:15:46;;;;;;;;;14.00;10.33;;;;;;;;4999554;28;45455;-80
2022/11/05 06:18:11;;;;;;;;;10.33;10.33;;;;;;;;5011088;28;45425;-78
2022/11/05 06:20:37;;;;;;;;;6.67;6.67;;;;;;;;5013660;28;45363;-78
2022/11/05 06:23:02;;;;;;;;;13.33;12.00;;;;;;;;5000235;28;45378;-79
2022/11/05 06:25:27;;;;;;;;;13.25;10.50;;;;;;;;4999556;28;46500;-80
2022/11/05 06:27:52;;;;;;;;;11.50;9.50;;;;;;;;4999601;28;45379;-80
2022/11/05 06:30:18;;;;;;;;;10.75;9.00;;;;;;;;4999545;28;45429;-80
2022/11/05 06:32:43;;;;;;;;;11.50;11.00;;;;;;;;5000959;28;45416;-80
2022/11/05 06:35:08;;;;;;;;;11.75;11.25;;;;;;;;5019474;28;45314;-81
2022/11/05 06:37:34;;;;;;;;;15.00;15.00;;;;;;;;5014099;28;45210;-83
2022/11/05 06:39:59;;;;;;;;;14.67;12.00;;;;;;;;5002248;28;45543;-80
2022/11/05 06:42:24;;;;;;;;;12.25;11.75;;;;;;;;4999576;28;45448;-77
2022/11/05 06:44:50;;;;;;;;;12.00;9.75;;;;;;;;4998424;28;46589;-78
2022/11/05 06:47:16;;;;;;;;;15.67;11.67;;;;;;;;4998348;28;45332;-78
2022/11/05 06:49:41;;;;;;;;;12.33;10.67;;;;;;;;4998711;28;45846;-78
2022/11/05 06:52:06;;;;;;;;;16.33;9.67;;;;;;;;4998958;28;45314;-78
2022/11/05 06:54:32;;;;;;;;;13.33;12.00;;;;;;;;4997997;28;47348;-78
2022/11/05 06:56:57;;;;;;;;;13.00;9.75;;;;;;;;4999424;28;45280;-77
2022/11/05 06:59:22;;;;;;;;;15.25;13.75;;;;;;;;4998999;28;45452;-77
2022/11/05 07:01:47;;;;;;;;;16.00;16.00;;;;;;;;5011904;28;45432;-77
2022/11/05 07:04:12;;;;;;;;;14.67;12.00;;;;;;;;5015291;28;46398;-77
2022/11/05 07:06:38;;;;;;;;;10.75;10.25;;;;;;;;5010900;28;45442;-76
2022/11/05 07:09:03;;;;;;;;;14.00;12.00;;;;;;;;4998053;28;45588;-77
2022/11/05 07:11:28;;;;;;;;;11.75;11.75;;;;;;;;4998429;28;45474;-78
2022/11/05 07:13:53;;;;;;;;;12.00;11.00;;;;;;;;4997870;28;46304;-78
2022/11/05 07:16:19;;;;;;;;;10.25;6.25;;;;;;;;4997840;28;45419;-78
2022/11/05 07:18:44;;;;;;;;;14.50;9.00;;;;;;;;5005826;28;45476;-78
2022/11/05 07:21:09;;;;;;;;;13.50;13.50;;;;;;;;5017740;28;45374;-77
2022/11/05 07:23:34;;;;;;;;;12.33;11.33;;;;;;;;5017722;28;45338;-78
2022/11/05 07:25:59;;;;;;;;;19.33;16.00;;;;;;;;5017463;28;45444;-77
2022/11/05 07:28:25;;;;;;;;;13.25;10.75;;;;;;;;4997229;28;45401;-78
2022/11/05 07:30:50;;;;;;;;;12.75;12.50;;;;;;;;4998667;28;45379;-77
2022/11/05 07:33:15;;;;;;;;;13.00;13.00;;;;;;;;5016492;28;46337;-77
2022/11/05 07:35:40;;;;;;;;;14.00;13.33;;;;;;;;5017488;28;45404;-77
2022/11/05 07:38:07;;;;;;;;;20.00;15.00;;;;;;;;5017813;28;45776;-77
2022/11/05 07:40:32;;;;;;;;;18.00;13.00;;;;;;;;5006020;28;45416;-77
2022/11/05 07:42:58;;;;;;;;;16.00;12.67;;;;;;;;4997059;28;45550;-81
2022/11/05 07:45:24;;;;;;;;;14.00;13.33;;;;;;;;4997765;28;45285;-80
2022/11/05 07:47:51;;;;;;;;;15.00;13.67;;;;;;;;5003732;28;45452;-80
2022/11/05 07:50:17;;;;;;;;;19.33;14.00;;;;;;;;5016468;28;45403;-83
2022/11/05 07:52:42;;;;;;;;;30.33;30.33;;;;;;;;5018644;28;46191;-78
2022/11/05 07:55:09;;;;;;;;;23.33;20.00;;;;;;;;5015210;28;45531;-76
2022/11/05 07:57:41;;;;;;;;;17.67;16.00;;;;;;;;5017539;28;45408;-76
2022/11/05 08:00:09;;;;;;;;;21.00;16.33;;;;;;;;5006465;28;45511;-75
2022/11/05 08:02:34;;;;;;;;;21.00;16.00;;;;;;;;4997534;28;46128;-76
2022/11/05 08:04:59;;;;;;;;;24.33;19.33;;;;;;;;4998070;28;45289;-78
2022/11/05 08:07:24;;;;;;;;;30.33;25.00;;;;;;;;4997864;28;45400;-78
2022/11/05 08:09:49;;;;;;;;;20.33;18.67;;;;;;;;4998258;28;45310;-80
2022/11/05 08:12:15;;;;;;;;;17.00;15.00;;;;;;;;4997770;28;45313;-80
2022/11/05 08:14:40;;;;;;;;;22.00;18.67;;;;;;;;4997739;28;45287;-80
2022/11/05 08:17:05;;;;;;;;;14.67;14.33;;;;;;;;4997891;28;45348;-79
2022/11/05 08:19:31;;;;;;;;;29.67;23.00;;;;;;;;4997293;28;45325;-78
2022/11/05 08:21:56;;;;;;;;;28.00;20.00;;;;;;;;4997689;28;46637;-78
2022/11/05 08:24:21;;;;;;;;;21.67;19.33;;;;;;;;4997767;28;45311;-78
2022/11/05 08:26:46;;;;;;;;;23.33;21.67;;;;;;;;4998095;28;45310;-77
2022/11/05 08:29:11;;;;;;;;;32.67;25.67;;;;;;;;4999075;28;45321;-80
2022/11/05 08:31:37;;;;;;;;;23.33;20.67;;;;;;;;4998014;28;45392;-82
2022/11/05 08:34:02;;;;;;;;;22.33;19.33;;;;;;;;4998123;28;45363;-81
2022/11/05 08:36:27;;;;;;;;;23.67;21.67;;;;;;;;4997299;28;45577;-82
2022/11/05 08:38:53;;;;;;;;;20.33;20.00;;;;;;;;4997798;28;45290;-82
2022/11/05 08:41:18;;;;;;;;;25.33;21.00;;;;;;;;4998616;28;46644;-81
2022/11/05 08:43:43;;;;;;;;;23.33;18.33;;;;;;;;4998954;28;45790;-80
2022/11/05 08:46:08;;;;;;;;;19.00;17.67;;;;;;;;5000085;28;45439;-81
2022/11/05 08:48:33;;;;;;;;;18.67;16.67;;;;;;;;4997652;28;45332;-82
2022/11/05 08:51:00;;;;;;;;;24.00;20.33;;;;;;;;4998453;28;46435;-77
2022/11/05 08:53:25;;;;;;;;;15.00;14.00;;;;;;;;4996992;28;45319;-78
2022/11/05 08:55:51;;;;;;;;;16.00;14.33;;;;;;;;4997059;28;45366;-78
2022/11/05 08:58:17;;;;;;;;;13.00;12.00;;;;;;;;4997387;28;45432;-77
2022/11/05 09:00:44;;;;;;;;;20.00;15.33;;;;;;;;4996933;28;46347;-78
2022/11/05 09:03:10;;;;;;;;;12.33;11.00;;;;;;;;4997108;28;45414;-79
2022/11/05 09:05:36;;;;;;;;;13.00;13.00;;;;;;;;5001464;28;45790;-78
2022/11/05 09:08:02;;;;;;;;;23.00;18.00;;;;;;;;5017160;28;45524;-80
2022/11/05 09:10:27;;;;;;;;;16.00;15.00;;;;;;;;5000641;28;46760;-80
2022/11/05 09:12:52;;;;;;;;;14.00;13.33;;;;;;;;4997912;28;46841;-76
2022/11/05 09:15:18;;;;;;;;;12.00;12.00;;;;;;;;4996910;28;45552;-79
2022/11/05 09:17:43;;;;;;;;;19.67;14.67;;;;;;;;4997091;28;45341;-77
2022/11/05 09:20:10;;;;;;;;;18.00;14.67;;;;;;;;4996774;28;45353;-77
2022/11/05 09:22:35;;;;;;;;;15.00;12.00;;;;;;;;4997326;28;45169;-79
2022/11/05 09:25:00;;;;;;;;;22.67;18.67;;;;;;;;4997498;28;45767;-78
2022/11/05 09:27:25;;;;;;;;;19.00;16.33;;;;;;;;4997190;28;45413;-78
2022/11/05 09:29:50;;;;;;;;;14.67;14.67;;;;;;;;5011933;28;46190;-78
2022/11/05 09:32:18;;;;;;;;;19.67;13.00;;;;;;;;4996742;28;45438;-79
2022/11/05 09:34:43;;;;;;;;;18.33;15.33;;;;;;;;4997056;28;45274;-78
2022/11/05 09:37:09;;;;;;;;;19.00;13.67;;;;;;;;4996947;28;45618;-79
2022/11/05 09:39:34;;;;;;;;;21.67;17.67;;;;;;;;4996529;28;46246;-78
2022/11/05 09:42:02;;;;;;;;;18.33;17.33;;;;;;;;5005989;28;45353;-71
2022/11/05 09:44:39;;;;;;;;;16.00;15.00;;;;;;;;5000554;28;45503;-77
2022/11/05 09:47:09;;;;;;;;;16.00;15.00;;;;;;;;4996895;28;45374;-72
2022/11/05 09:49:40;;;;;;;;;21.50;17.50;;;;;;;;4996599;28;46025;-77
2022/11/05 09:52:10;;;;;;;;;17.00;15.50;;;;;;;;4999874;28;45343;-78
2022/11/05 09:54:36;;;;;;;;;19.00;17.33;;;;;;;;5001039;28;46980;-71
2022/11/05 09:57:02;;;;;;;;;22.00;16.67;;;;;;;;4999489;28;45475;-73
2022/11/05 09:59:49;;;;;;;;;19.33;15.67;;;;;;;;5001000;28;45554;-71
2022/11/05 10:02:29;;;;;;;;;24.33;20.00;;;;;;;;4998963;28;45852;-76
2022/11/05 10:05:13;;;;;;;;;15.00;12.67;;;;;;;;5000915;28;45309;-75
2022/11/05 10:08:00;;;;;;;;;19.33;17.00;;;;;;;;4999851;28;45405;-71
2022/11/05 10:10:35;;;;;;;;;22.67;17.33;;;;;;;;4999634;28;46228;-68
2022/11/05 10:13:04;;;;;;;;;17.00;16.00;;;;;;;;5018579;28;45361;-68
2022/11/05 10:15:29;;;;;;;;;15.67;13.00;;;;;;;;5019383;28;45459;-67
2022/11/05 10:17:56;;;;;;;;;16.33;12.00;;;;;;;;5019386;28;45578;-68
2022/11/05 10:20:35;;;;;;;;;19.67;14.33;;;;;;;;5011977;28;46443;-71
2022/11/05 10:23:09;;;;;;;;;15.00;11.67;;;;;;;;4999268;28;45558;-71
2022/11/05 10:25:37;;;;;;;;;12.25;12.25;;;;;;;;5019408;28;45459;-72
2022/11/05 10:28:02;;;;;;;;;20.00;17.33;;;;;;;;5012234;28;45472;-70
2022/11/05 10:30:28;;;;;;;;;20.00;16.67;;;;;;;;4999198;28;46253;-75
2022/11/05 10:32:55;;;;;;;;;19.67;14.33;;;;;;;;4998976;28;45456;-79
2022/11/05 10:35:22;;;;;;;;;17.33;16.67;;;;;;;;4999529;28;45301;-73
2022/11/05 10:37:52;;;;;;;;;19.33;18.00;;;;;;;;5000874;28;45508;-71
2022/11/05 10:40:30;;;;;;;;;25.33;25.00;;;;;;;;4999052;28;46252;-76
2022/11/05 10:43:02;;;;;;;;;18.33;16.67;;;;;;;;5002226;28;45320;-73
2022/11/05 10:45:45;;;;;;;;;15.33;14.00;;;;;;;;5019271;28;45507;-79
2022/11/05 10:48:18;;;;;;;;;18.00;16.00;;;;;;;;5017904;28;45312;-71
2022/11/05 10:50:44;;;;;;;;;22.00;14.00;;;;;;;;5017923;28;45540;-80
2022/11/05 10:53:09;;;;;;;;;17.33;15.33;;;;;;;;5012883;28;45676;-79
2022/11/05 10:55:36;;;;;;;;;18.33;17.00;;;;;;;;4997847;28;45436;-77
2022/11/05 10:58:16;;;;;;;;;22.00;19.00;;;;;;;;4999707;28;45560;-76
2022/11/05 11:00:43;;;;;;;;;18.67;17.00;;;;;;;;4999851;28;45999;-72
2022/11/05 11:03:27;;;;;;;;;21.33;13.00;;;;;;;;5007717;28;45538;-77
2022/11/05 11:05:59;;;;;;;;;20.00;18.33;;;;;;;;5012512;28;45482;-70
2022/11/05 11:08:25;;;;;;;;;19.33;16.33;;;;;;;;5038775;28;45414;-75
2022/11/05 11:11:01;;;;;;;;;17.00;17.00;;;;;;;;5024851;28;46509;-74
2022/11/05 11:13:27;;;;;;;;;18.00;18.00;;;;;;;;5023232;28;45391;-72
2022/11/05 11:15:53;;;;;;;;;14.33;13.00;;;;;;;;5023800;28;45450;-72
2022/11/05 11:18:29;;;;;;;;;16.67;15.67;;;;;;;;5026510;28;45552;-82
2022/11/05 11:21:04;;;;;;;;;17.33;17.00;;;;;;;;5024285;28;47324;-75
2022/11/05 11:23:35;;;;;;;;;19.00;15.33;;;;;;;;5019446;28;46451;-79
2022/11/05 11:26:00;;;;;;;;;24.67;23.67;;;;;;;;5018205;28;45385;-79
2022/11/05 11:28:44;;;;;;;;;18.00;17.33;;;;;;;;5019482;28;45425;-80
2022/11/05 11:31:14;;;;;;;;;18.00;18.00;;;;;;;;5024675;28;45472;-81
2022/11/05 11:33:41;;;;;;;;;17.33;16.67;;;;;;;;5006163;28;45507;-81
2022/11/05 11:36:08;;;;;;;;;18.67;17.33;;;;;;;;5013901;28;45483;-80
2022/11/05 11:38:35;;;;;;;;;16.33;16.33;;;;;;;;5019673;28;45564;-79
2022/11/05 11:41:17;;;;;;;;;20.00;15.00;;;;;;;;5016487;28;46050;-77
2022/11/05 11:43:43;;;;;;;;;20.00;16.00;;;;;;;;5020008;28;46040;-79
2022/11/05 11:46:30;;;;;;;;;14.75;14.00;;;;;;;;5016303;28;45458;-77
2022/11/05 11:48:55;;;;;;;;;16.00;14.33;;;;;;;;5007619;28;45459;-76
2022/11/05 11:51:26;;;;;;;;;19.00;16.00;;;;;;;;5012560;28;46044;-75
2022/11/05 11:53:55;;;;;;;;;15.00;13.33;;;;;;;;5003387;28;45428;-74
2022/11/05 11:56:20;;;;;;;;;17.00;14.67;;;;;;;;5001133;28;45451;-74
2022/11/05 11:58:53;;;;;;;;;17.67;12.67;;;;;;;;5016843;28;45456;-75
2022/11/05 12:01:24;;;;;;;;;9.00;9.00;;;;;;;;5010941;28;46733;-75
2022/11/05 12:04:07;;;;;;;;;13.33;13.00;;;;;;;;5033781;28;45539;-75
2022/11/05 12:06:46;;;;;;;;;13.25;11.50;;;;;;;;5014325;28;45436;-74
2022/11/05 12:09:17;;;;;;;;;15.00;13.00;;;;;;;;5011960;28;45436;-75
2022/11/05 12:12:02;;;;;;;;;14.25;12.50;;;;;;;;5008217;28;47131;-75
2022/11/05 12:14:40;;;;;;;;;14.00;13.00;;;;;;;;5000450;28;45479;-74
2022/11/05 12:17:14;;;;;;;;;13.00;12.00;;;;;;;;5029094;28;45466;-73
2022/11/05 12:19:42;;;;;;;;;10.25;10.00;;;;;;;;5014946;28;45536;-75
2022/11/05 12:22:21;;;;;;;;;79.50;71.25;;;;;;;;5007412;28;45456;-74
2022/11/05 12:25:11;;;;;;;;;21.00;17.33;;;;;;;;5013125;28;45384;-74
2022/11/05 12:27:36;;;;;;;;;26.67;23.00;;;;;;;;5015867;28;45455;-74
2022/11/05 12:30:05;;;;;;;;;10.33;10.33;;;;;;;;5015848;28;45436;-74
2022/11/05 12:32:45;;;;;;;;;14.00;10.75;;;;;;;;5017206;28;46127;-75
2022/11/05 12:35:14;;;;;;;;;11.00;11.00;;;;;;;;5008933;28;45511;-73
2022/11/05 12:37:55;;;;;;;;;13.00;12.00;;;;;;;;5011070;28;45778;-75
2022/11/05 12:40:26;;;;;;;;;11.25;9.25;;;;;;;;5003498;28;45390;-78
2022/11/05 12:43:13;;;;;;;;;12.75;10.00;;;;;;;;5007940;28;46594;-76
2022/11/05 12:45:41;;;;;;;;;19.33;14.67;;;;;;;;5009260;28;45363;-75
2022/11/05 12:48:15;;;;;;;;;12.25;9.25;;;;;;;;5026605;28;45308;-74
2022/11/05 12:50:43;;;;;;;;;10.25;9.25;;;;;;;;5020778;28;45568;-69
2022/11/05 12:53:14;;;;;;;;;14.50;13.00;;;;;;;;5011492;28;45620;-69
2022/11/05 12:55:41;;;;;;;;;11.00;8.00;;;;;;;;5003750;28;45679;-70
2022/11/05 12:58:12;;;;;;;;;11.00;10.00;;;;;;;;5001741;28;45418;-70
2022/11/05 13:00:41;;;;;;;;;13.33;10.67;;;;;;;;4998368;28;45755;-67
2022/11/05 13:03:18;;;;;;;;;12.25;12.25;;;;;;;;5002017;28;47368;-76
2022/11/05 13:06:03;;;;;;;;;14.33;12.00;;;;;;;;5009307;28;45470;-76
2022/11/05 13:08:35;;;;;;;;;13.75;12.00;;;;;;;;5012997;28;45519;-70
2022/11/05 13:11:00;;;;;;;;;10.75;9.25;;;;;;;;5012260;28;45491;-69
2022/11/05 13:13:30;;;;;;;;;10.00;10.00;;;;;;;;4995836;28;45986;-69
2022/11/05 13:16:03;;;;;;;;;14.00;13.00;;;;;;;;4997354;28;45562;-70
2022/11/05 13:18:50;;;;;;;;;12.25;10.25;;;;;;;;5007230;28;45503;-70
2022/11/05 13:21:17;;;;;;;;;15.33;13.00;;;;;;;;5014874;28;45519;-70
2022/11/05 13:23:46;;;;;;;;;14.25;12.50;;;;;;;;5015920;28;45490;-70
2022/11/05 13:26:21;;;;;;;;;12.00;9.25;;;;;;;;5015523;28;45368;-71
2022/11/05 13:29:06;;;;;;;;;37.33;31.33;;;;;;;;5003307;28;45645;-72
2022/11/05 13:31:37;;;;;;;;;22.33;20.00;;;;;;;;5016900;28;45454;-72
2022/11/05 13:34:05;;;;;;;;;14.00;12.33;;;;;;;;5004613;28;46091;-76
2022/11/05 13:39:24;;;;;;;;;10.50;10.00;;;;;;;;5003432;28;45553;-74
2022/11/05 13:41:59;;;;;;;;;10.00;9.00;;;;;;;;5007091;28;45678;-73
2022/11/05 13:44:25;;;;;;;;;9.75;8.00;;;;;;;;5001792;28;46722;-70
2022/11/05 13:47:08;;;;;;;;;8.50;8.00;;;;;;;;5012211;28;45695;-73
2022/11/05 13:50:12;;;;;;;;;8.75;8.25;;;;;;;;5010849;28;45461;-74
2022/11/05 13:52:56;;;;;;;;;9.00;7.25;;;;;;;;4996600;28;48419;-74
2022/11/05 13:55:21;;;;;;;;;8.00;6.75;;;;;;;;4995924;28;46343;-75
2022/11/05 13:57:49;;;;;;;;;7.50;6.25;;;;;;;;4996381;28;45368;-71
2022/11/05 14:00:14;;;;;;;;;8.00;8.00;;;;;;;;4996540;28;45484;-72
2022/11/05 14:02:46;;;;;;;;;8.75;8.00;;;;;;;;4996107;28;46073;-71
2022/11/05 14:05:35;;;;;;;;;9.25;6.75;;;;;;;;4996228;28;46449;-74
2022/11/05 14:08:06;;;;;;;;;6.50;5.00;;;;;;;;4975386;28;45531;-77
2022/11/05 14:10:36;;;;;;;;;9.25;7.25;;;;;;;;4972376;28;46236;-73
2022/11/05 14:13:15;;;;;;;;;2.00;2.00;;;;;;;;4976834;28;45887;-72
2022/11/05 14:15:50;;;;;;;;;9.25;6.25;;;;;;;;4976463;28;46641;-77
2022/11/05 14:18:34;;;;;;;;;6.50;5.00;;;;;;;;4976762;28;45594;-78
2022/11/05 14:21:01;;;;;;;;;7.25;6.50;;;;;;;;4976600;28;46059;-76
2022/11/05 14:23:37;;;;;;;;;7.50;5.00;;;;;;;;4967665;28;45555;-77
2022/11/05 14:26:11;;;;;;;;;6.75;6.00;;;;;;;;4962671;28;45548;-77
2022/11/05 14:28:36;;;;;;;;;10.00;7.00;;;;;;;;4969832;28;45659;-75
2022/11/05 14:31:03;;;;;;;;;11.00;10.00;;;;;;;;4957483;28;45556;-72
2022/11/05 14:33:36;;;;;;;;;8.50;8.50;;;;;;;;4957775;28;45694;-72
2022/11/05 14:36:19;;;;;;;;;6.50;5.50;;;;;;;;4959587;28;46061;-82
2022/11/05 14:38:45;;;;;;;;;12.75;10.50;;;;;;;;4964685;28;45420;-76
2022/11/05 14:41:11;;;;;;;;;38.67;33.67;;;;;;;;4971127;28;45411;-80
2022/11/05 14:43:42;;;;;;;;;13.33;11.00;;;;;;;;4974445;28;45430;-77
2022/11/05 14:46:08;;;;;;;;;7.75;7.75;;;;;;;;4997409;28;46487;-75
2022/11/05 14:48:56;;;;;;;;;6.25;6.00;;;;;;;;5026137;28;45914;-80
2022/11/05 14:51:25;;;;;;;;;6.00;6.00;;;;;;;;5038308;28;45369;-79
2022/11/05 14:53:57;;;;;;;;;5.00;5.00;;;;;;;;5027282;28;45356;-78
2022/11/05 14:56:22;;;;;;;;;7.25;4.25;;;;;;;;5010599;28;45478;-73
2022/11/05 14:58:48;;;;;;;;;6.50;6.50;;;;;;;;5001588;28;45806;-71
2022/11/05 15:01:13;;;;;;;;;22.33;20.33;;;;;;;;5005944;28;45701;-75
2022/11/05 15:03:38;;;;;;;;;7.00;5.50;;;;;;;;5002369;28;45488;-73
2022/11/05 15:06:19;;;;;;;;;3.25;2.50;;;;;;;;5014525;28;45642;-71
2022/11/05 15:08:47;;;;;;;;;6.50;5.75;;;;;;;;4998410;28;45800;-74
2022/11/05 15:11:15;;;;;;;;;6.00;5.00;;;;;;;;5027043;28;45228;-76
2022/11/05 15:13:50;;;;;;;;;5.25;3.75;;;;;;;;5017562;28;45453;-73
2022/11/05 15:16:19;;;;;;;;;5.00;3.50;;;;;;;;5017393;28;47090;-72